Time;durP1;ratioP1;P1;durP2;ratioP2;P2;SDS_P1;SDS_P2;PMS_P1;PMS_P2;Temp;Humidity;BMP_temperature;BMP_pressure;BME280_temperature;BME280_humidity;BME280_pressure;Samples;Min_cycle;Max_cycle;Signal;HPM_P1;HPM_P2
2022/11/15 00:01:55;;;;;;;20.90;9.68;;;8.00;99.90;;;;;;5056548;28;20040;-81
2022/11/15 00:04:21;;;;;;;21.25;9.63;;;7.60;99.90;;;;;;5056273;28;20047;-81
2022/11/15 00:06:47;;;;;;;18.80;9.88;;;8.00;99.90;;;;;;5023451;28;20040;-81
2022/11/15 00:09:12;;;;;;;16.13;8.32;;;7.40;99.90;;;;;;5039887;28;20039;-81
2022/11/15 00:11:38;;;;;;;21.33;8.98;;;6.30;99.90;;;;;;5072685;28;20041;-81
2022/11/15 00:14:04;;;;;;;21.15;10.57;;;6.40;99.90;;;;;;5056762;28;20029;-83
2022/11/15 00:16:29;;;;;;;19.60;10.40;;;6.40;99.90;;;;;;5035893;28;20028;-83
2022/11/15 00:18:57;;;;;;;19.30;9.40;;;6.50;99.90;;;;;;5047863;28;20036;-83
2022/11/15 00:21:22;;;;;;;25.27;11.05;;;6.60;99.90;;;;;;5024227;28;20067;-83
2022/11/15 00:23:48;;;;;;;20.23;9.52;;;6.70;99.90;;;;;;5023078;28;20590;-83
2022/11/15 00:26:15;;;;;;;20.15;9.38;;;6.70;99.90;;;;;;5037890;28;20049;-83
2022/11/15 00:28:41;;;;;;;19.88;9.52;;;6.80;99.90;;;;;;5072407;28;20040;-83
2022/11/15 00:31:09;;;;;;;16.98;8.40;;;7.70;99.90;;;;;;5072397;28;20523;-81
2022/11/15 00:33:35;;;;;;;20.85;8.98;;;7.10;99.90;;;;;;5068856;28;20116;-81
2022/11/15 00:36:06;;;;;;;20.35;9.43;;;6.90;99.90;;;;;;5054818;28;20123;-81
2022/11/15 00:38:33;;;;;;;19.00;9.07;;;6.90;99.90;;;;;;5099215;28;20040;-81
2022/11/15 00:41:01;;;;;;;17.67;8.65;;;7.00;99.90;;;;;;5048422;28;20093;-81
2022/11/15 00:43:27;;;;;;;15.50;8.45;;;7.90;99.90;;;;;;5073235;28;20074;-81
2022/11/15 00:45:52;;;;;;;20.45;9.80;;;7.00;99.90;;;;;;5039236;28;20040;-81
2022/11/15 00:48:18;;;;;;;20.42;9.48;;;7.00;99.90;;;;;;5059844;28;20082;-81
2022/11/15 00:50:44;;;;;;;18.38;9.27;;;7.30;99.90;;;;;;5058498;28;20098;-80
2022/11/15 00:53:10;;;;;;;18.73;8.70;;;8.10;99.90;;;;;;5066096;28;20041;-81
2022/11/15 00:55:36;;;;;;;15.38;8.60;;;8.50;99.90;;;;;;5052655;28;20071;-80
2022/11/15 00:58:02;;;;;;;18.50;9.65;;;7.40;99.90;;;;;;5071439;28;20067;-80
2022/11/15 01:00:27;;;;;;;18.58;8.80;;;7.10;99.90;;;;;;5055084;28;20043;-80
2022/11/15 01:02:53;;;;;;;18.63;9.63;;;7.70;99.90;;;;;;5055105;28;20087;-83
2022/11/15 01:05:19;;;;;;;19.45;9.55;;;7.10;99.90;;;;;;5055321;28;20436;-84
2022/11/15 01:07:45;;;;;;;18.42;8.50;;;7.60;99.90;;;;;;5055781;28;20487;-83
2022/11/15 01:10:11;;;;;;;18.38;8.32;;;7.80;99.90;;;;;;5024452;28;20093;-83
2022/11/15 01:12:36;;;;;;;21.15;8.93;;;7.10;99.90;;;;;;5050096;28;20089;-83
2022/11/15 01:15:03;;;;;;;22.08;9.00;;;7.90;99.90;;;;;;5064662;28;20508;-83
2022/11/15 01:17:30;;;;;;;17.85;9.13;;;7.10;99.90;;;;;;5087316;28;20036;-83
2022/11/15 01:19:58;;;;;;;17.83;9.23;;;7.10;99.90;;;;;;5042491;28;20040;-81
2022/11/15 01:22:27;;;;;;;18.15;8.65;;;7.10;99.90;;;;;;5055376;28;20052;-81
2022/11/15 01:24:53;;;;;;;18.92;9.15;;;;;;;;;;5062688;28;20032;-81
2022/11/15 01:27:19;;;;;;;22.55;9.50;;;7.10;99.90;;;;;;5066990;28;20400;-81
2022/11/15 01:29:44;;;;;;;18.58;9.18;;;7.10;99.90;;;;;;5046224;28;20037;-81
2022/11/15 01:32:10;;;;;;;19.83;9.40;;;7.00;99.90;;;;;;5053280;28;20032;-81
2022/11/15 01:34:36;;;;;;;18.45;9.48;;;7.00;99.90;;;;;;5067148;28;20086;-81
2022/11/15 01:37:02;;;;;;;21.15;8.85;;;8.60;99.90;;;;;;5041626;28;20040;-81
2022/11/15 01:39:28;;;;;;;19.13;10.02;;;8.00;99.90;;;;;;5076166;28;20036;-81
2022/11/15 01:41:54;;;;;;;19.60;9.50;;;7.60;99.90;;;;;;5064808;28;20058;-81
2022/11/15 01:44:35;;;;;;;21.27;10.05;;;8.10;99.90;;;;;;5076191;28;20043;-81
2022/11/15 01:47:08;;;;;;;19.15;9.10;;;7.70;99.90;;;;;;5053701;28;20036;-81
2022/11/15 01:49:38;;;;;;;17.92;9.70;;;7.80;99.90;;;;;;5071106;28;20040;-81
2022/11/15 01:52:07;;;;;;;17.50;8.98;;;8.50;99.90;;;;;;5060132;28;20136;-81
2022/11/15 01:54:33;;;;;;;20.33;8.88;;;8.10;99.90;;;;;;5092280;28;20115;-82
2022/11/15 01:57:09;;;;;;;21.08;9.60;;;6.80;99.90;;;;;;5073669;28;20064;-82
2022/11/15 01:59:36;;;;;;;21.45;10.57;;;6.80;99.90;;;;;;5072498;28;20040;-82
2022/11/15 02:02:02;;;;;;;21.42;9.13;;;6.70;99.90;;;;;;5058549;28;20484;-82
2022/11/15 02:04:31;;;;;;;21.92;9.20;;;6.70;99.90;;;;;;5058503;28;20055;-82
2022/11/15 02:06:56;;;;;;;22.35;8.35;;;6.90;99.90;;;;;;5058265;28;20078;-82
2022/11/15 02:09:22;;;;;;;21.48;9.13;;;7.30;99.90;;;;;;5059352;28;20062;-82
2022/11/15 02:11:51;;;;;;;17.50;8.05;;;8.10;99.90;;;;;;5058003;28;20047;-82
2022/11/15 02:14:19;;;;;;;16.42;7.38;;;7.40;99.90;;;;;;5071714;28;20098;-82
2022/11/15 02:17:36;;;;;;;19.02;8.60;;;7.80;99.90;;;;;;5038754;28;20044;-82
2022/11/15 02:20:33;;;;;;;19.40;8.90;;;6.60;99.90;;;;;;5025392;28;20041;-82
2022/11/15 02:23:36;;;;;;;19.92;9.25;;;6.60;99.90;;;;;;5057753;28;20036;-82
2022/11/15 02:26:46;;;;;;;18.67;8.57;;;6.60;99.90;;;;;;5044478;28;20045;-82
2022/11/15 02:29:46;;;;;;;18.73;7.97;;;6.60;99.90;;;;;;5054332;28;20072;-82
2022/11/15 02:32:20;;;;;;;16.85;7.80;;;6.60;99.90;;;;;;5056123;28;20419;-82
2022/11/15 02:35:02;;;;;;;16.40;7.30;;;6.60;99.90;;;;;;5075052;28;20423;-82
2022/11/15 02:37:56;;;;;;;20.88;8.75;;;6.60;99.90;;;;;;5074856;28;20036;-82
2022/11/15 02:40:49;;;;;;;17.73;6.95;;;6.60;99.90;;;;;;5061829;28;20044;-82
2022/11/15 02:49:31;;;;;;;18.60;7.53;;;6.60;99.90;;;;;;5057741;28;20045;-82
2022/11/15 02:51:56;;;;;;;17.33;7.35;;;6.70;99.90;;;;;;5066973;28;20496;-82
2022/11/15 02:54:30;;;;;;;17.90;8.73;;;6.60;99.90;;;;;;5074275;28;20039;-82
2022/11/15 02:57:10;;;;;;;20.63;8.73;;;6.60;99.90;;;;;;5057534;28;20043;-82
2022/11/15 02:59:46;;;;;;;20.05;9.35;;;6.60;99.90;;;;;;5057175;28;20032;-81
2022/11/15 03:02:20;;;;;;;16.00;8.40;;;7.70;99.90;;;;;;5065557;28;20133;-81
2022/11/15 03:04:52;;;;;;;19.95;8.77;;;6.60;99.90;;;;;;5070240;28;20082;-81
2022/11/15 03:07:58;;;;;;;19.30;8.20;;;6.60;99.90;;;;;;5057551;28;20048;-81
2022/11/15 03:10:30;;;;;;;21.17;9.07;;;6.60;99.90;;;;;;5066274;28;20048;-81
2022/11/15 03:12:59;;;;;;;20.02;8.30;;;6.70;99.90;;;;;;5075373;28;20041;-81
2022/11/15 03:15:51;;;;;;;20.77;9.82;;;6.70;99.90;;;;;;5054095;28;20036;-81
2022/11/15 03:18:26;;;;;;;21.83;9.00;;;6.70;99.90;;;;;;5041570;28;20058;-83
2022/11/15 03:20:54;;;;;;;18.98;8.05;;;7.60;99.90;;;;;;5056493;28;20101;-83
2022/11/15 03:23:20;;;;;;;25.25;9.07;;;;;;;;;;5056600;28;20036;-83
2022/11/15 03:25:50;;;;;;;24.27;11.05;;;6.70;99.90;;;;;;5045208;28;20045;-83
2022/11/15 03:28:37;;;;;;;19.10;8.93;;;7.70;99.90;;;;;;5040126;28;20036;-83
2022/11/15 03:31:46;;;;;;;20.77;8.07;;;6.80;99.90;;;;;;5050543;28;20040;-83
2022/11/15 03:33:54;;;;;;;19.45;8.65;;;6.80;99.90;;;;;;5073639;28;20110;-81
2022/11/15 03:36:23;;;;;;;27.05;8.63;;;7.90;99.90;;;;;;5073071;28;20041;-81
2022/11/15 03:38:49;;;;;;;22.05;8.48;;;6.90;99.90;;;;;;5056460;28;20074;-81
2022/11/15 03:41:41;;;;;;;23.90;9.40;;;8.00;99.90;;;;;;5056480;28;20553;-81
2022/11/15 03:44:28;;;;;;;20.40;8.82;;;6.90;99.90;;;;;;5070339;28;20053;-81
2022/11/15 03:47:08;;;;;;;24.88;8.65;;;6.90;99.90;;;;;;5056378;28;20094;-81
2022/11/15 03:49:36;;;;;;;26.95;9.63;;;7.00;99.90;;;;;;5056086;28;20044;-83
2022/11/15 03:52:03;;;;;;;23.30;8.85;;;7.00;99.90;;;;;;5063009;28;20049;-83
2022/11/15 03:54:29;;;;;;;22.27;9.70;;;7.00;99.90;;;;;;5056497;28;20044;-83
2022/11/15 03:56:55;;;;;;;25.55;9.98;;;7.30;99.90;;;;;;5056255;28;20047;-83
2022/11/15 03:59:21;;;;;;;29.55;10.02;;;7.10;99.90;;;;;;5024146;28;20039;-83
2022/11/15 04:01:47;;;;;;;21.60;8.77;;;7.10;99.90;;;;;;5039464;28;20045;-83
2022/11/15 04:04:13;;;;;;;21.55;8.98;;;7.00;99.90;;;;;;5036748;28;20045;-83
2022/11/15 04:06:38;;;;;;;26.25;9.18;;;7.10;99.90;;;;;;5069538;28;20051;-81
2022/11/15 04:09:04;;;;;;;23.65;8.23;;;7.10;99.90;;;;;;5072754;28;20063;-81
2022/11/15 04:11:30;;;;;;;24.20;9.80;;;7.10;99.90;;;;;;5055717;28;20040;-81
2022/11/15 04:13:56;;;;;;;24.58;8.90;;;7.10;99.90;;;;;;5039426;28;20032;-81
2022/11/15 04:16:21;;;;;;;22.38;8.98;;;7.10;99.90;;;;;;5056039;28;20039;-81
2022/11/15 04:24:11;;;;;;;23.77;9.80;;;7.20;99.90;;;;;;5055690;28;20049;-81
2022/11/15 04:24:20;;;;;;;22.77;9.32;;;7.20;99.90;;;;;;5058895;28;20045;-83
2022/11/15 04:26:46;;;;;;;25.05;8.50;;;8.10;99.90;;;;;;5023375;28;20037;-83
2022/11/15 04:31:55;;;;;;;27.40;9.73;;;7.30;99.90;;;;;;5064974;28;20044;-83
2022/11/15 04:34:21;;;;;;;18.38;8.50;;;8.00;99.90;;;;;;5070055;28;20571;-84
2022/11/15 04:39:31;;;;;;;20.67;9.63;;;8.50;99.90;;;;;;5057681;28;20048;-81
2022/11/15 04:41:57;;;;;;;22.42;9.27;;;7.40;99.90;;;;;;5059829;28;20059;-81
2022/11/15 04:44:22;;;;;;;26.67;10.05;;;8.40;99.90;;;;;;5044346;28;20407;-81
2022/11/15 04:46:48;;;;;;;21.63;8.55;;;7.40;99.90;;;;;;5055797;28;20090;-81
2022/11/15 04:49:14;;;;;;;23.85;8.68;;;7.50;99.90;;;;;;5022405;28;20617;-81
2022/11/15 04:51:40;;;;;;;27.02;8.75;;;8.60;99.90;;;;;;5038625;28;20067;-81
2022/11/15 04:54:06;;;;;;;22.08;8.98;;;8.30;99.90;;;;;;5098589;28;20496;-81
2022/11/15 04:56:31;;;;;;;25.20;9.63;;;7.50;99.90;;;;;;5039034;28;20045;-81
2022/11/15 04:58:57;;;;;;;22.45;9.88;;;7.60;99.90;;;;;;5038340;28;20079;-81
2022/11/15 05:01:23;;;;;;;31.60;8.80;;;9.00;99.90;;;;;;5055531;28;20044;-81
2022/11/15 05:06:36;;;;;;;25.70;9.68;;;7.70;99.90;;;;;;5055133;28;20040;-81
2022/11/15 05:09:02;;;;;;;25.35;10.32;;;8.00;99.90;;;;;;5039645;28;20044;-81
2022/11/15 05:11:27;;;;;;;22.88;9.70;;;7.70;99.90;;;;;;5054616;28;20040;-81
2022/11/15 05:13:53;;;;;;;24.63;11.38;;;8.90;99.90;;;;;;5038424;28;20503;-81
2022/11/15 05:16:19;;;;;;;25.35;9.60;;;7.80;99.90;;;;;;5055109;28;20029;-81
2022/11/15 05:18:45;;;;;;;23.02;9.07;;;7.80;99.90;;;;;;5070853;28;20040;-82
2022/11/15 05:21:14;;;;;;;24.73;9.82;;;8.10;99.90;;;;;;5071714;28;20052;-82
2022/11/15 05:23:40;;;;;;;22.48;9.82;;;7.80;99.90;;;;;;5071814;28;20041;-82
2022/11/15 05:26:07;;;;;;;22.00;9.13;;;7.90;99.90;;;;;;5044128;28;20041;-82
2022/11/15 05:28:34;;;;;;;25.92;9.05;;;8.80;99.90;;;;;;5067546;28;20110;-82
2022/11/15 05:31:08;;;;;;;22.05;10.13;;;8.30;99.90;;;;;;5049138;28;20047;-82
2022/11/15 05:33:35;;;;;;;29.35;9.75;;;8.00;99.90;;;;;;5038771;28;20127;-82
2022/11/15 05:36:20;;;;;;;25.63;9.20;;;8.00;99.90;;;;;;5055228;28;20048;-82
2022/11/15 05:38:50;;;;;;;21.15;8.32;;;8.10;99.90;;;;;;5054707;28;20037;-82
2022/11/15 05:41:19;;;;;;;21.55;8.98;;;8.10;99.90;;;;;;5071802;28;20127;-82
2022/11/15 05:43:48;;;;;;;21.15;9.32;;;8.10;99.90;;;;;;5073153;28;20040;-82
2022/11/15 05:46:14;;;;;;;26.23;8.45;;;9.30;99.90;;;;;;5054855;28;20048;-82
2022/11/15 05:48:43;;;;;;;21.30;9.20;;;8.20;99.90;;;;;;5072717;28;20041;-81
2022/11/15 05:51:09;;;;;;;25.90;9.93;;;8.20;99.90;;;;;;5072006;28;20067;-81
2022/11/15 05:53:39;;;;;;;26.73;10.98;;;8.30;99.90;;;;;;5038347;28;20045;-81
2022/11/15 05:56:06;;;;;;;27.75;10.52;;;8.40;99.90;;;;;;5072394;28;20544;-81
2022/11/15 05:58:36;;;;;;;28.38;9.95;;;8.50;99.90;;;;;;5021870;28;20044;-81
2022/11/15 06:01:02;;;;;;;24.70;9.90;;;9.40;99.90;;;;;;5047957;28;20047;-81
2022/11/15 06:03:28;;;;;;;27.88;10.35;;;8.60;99.90;;;;;;5040828;28;20056;-83
2022/11/15 06:05:54;;;;;;;25.35;9.77;;;8.70;99.90;;;;;;5021553;28;20044;-83
2022/11/15 06:08:20;;;;;;;28.80;10.10;;;8.70;99.90;;;;;;5087870;28;20135;-83
2022/11/15 06:10:45;;;;;;;23.73;10.15;;;8.70;99.90;;;;;;5038097;28;20062;-84
2022/11/15 06:13:11;;;;;;;32.63;11.35;;;9.10;99.90;;;;;;5059483;28;20040;-83
2022/11/15 06:15:37;;;;;;;34.38;11.52;;;9.80;99.90;;;;;;5036325;28;20044;-83
2022/11/15 06:18:03;;;;;;;26.75;11.60;;;9.40;99.90;;;;;;5021843;28;20119;-83
2022/11/15 06:20:29;;;;;;;21.23;9.63;;;8.90;99.90;;;;;;5054445;28;20043;-81
2022/11/15 06:22:59;;;;;;;27.75;10.57;;;9.00;99.90;;;;;;5038127;28;20414;-81
2022/11/15 06:25:26;;;;;;;20.85;8.98;;;9.10;99.90;;;;;;5058230;28;20040;-81
2022/11/15 06:27:57;;;;;;;21.50;8.35;;;9.10;99.90;;;;;;5048706;28;20412;-81
2022/11/15 06:30:26;;;;;;;25.02;11.32;;;;;;;;;;5076306;28;20032;-81
2022/11/15 06:33:00;;;;;;;24.30;9.82;;;9.20;99.90;;;;;;5074346;28;20036;-81
2022/11/15 06:35:29;;;;;;;25.88;9.57;;;9.20;99.90;;;;;;5071341;28;20041;-81
2022/11/15 06:37:55;;;;;;;23.58;9.45;;;9.30;99.90;;;;;;5063292;28;20139;-81
2022/11/15 06:40:21;;;;;;;22.05;9.32;;;9.30;99.90;;;;;;5097871;28;20041;-81
2022/11/15 06:42:47;;;;;;;28.80;11.63;;;10.20;99.90;;;;;;5058039;28;20039;-81
2022/11/15 06:45:13;;;;;;;25.20;10.35;;;9.30;99.90;;;;;;5057678;28;20086;-81
2022/11/15 06:47:45;;;;;;;22.77;9.95;;;10.00;99.90;;;;;;5075876;28;20037;-81
2022/11/15 06:50:11;;;;;;;21.77;8.70;;;9.40;99.90;;;;;;5055880;28;20041;-81
2022/11/15 06:52:37;;;;;;;25.90;10.25;;;9.30;99.90;;;;;;5075601;28;20071;-81
2022/11/15 06:55:03;;;;;;;24.63;14.00;;;9.40;99.90;;;;;;5057357;28;20040;-82
2022/11/15 06:57:28;;;;;;;22.45;9.30;;;9.40;99.90;;;;;;5041132;28;20097;-83
2022/11/15 06:59:54;;;;;;;28.95;10.25;;;9.50;99.90;;;;;;5091299;28;20040;-83
2022/11/15 07:02:20;;;;;;;27.23;11.55;;;9.80;99.90;;;;;;5056637;28;20048;-83
2022/11/15 07:04:45;;;;;;;20.67;9.57;;;9.50;99.90;;;;;;5057218;28;20072;-82
2022/11/15 07:07:11;;;;;;;22.23;10.07;;;9.60;99.90;;;;;;5073750;28;20036;-81
2022/11/15 07:09:37;;;;;;;22.85;10.05;;;9.60;99.90;;;;;;5073924;28;20095;-81
2022/11/15 07:12:03;;;;;;;27.27;10.43;;;9.60;99.90;;;;;;5074734;28;20041;-81
2022/11/15 07:14:28;;;;;;;26.75;10.88;;;9.60;99.90;;;;;;5090992;28;20080;-81
2022/11/15 07:16:54;;;;;;;27.33;11.00;;;10.80;99.90;;;;;;5054027;28;20037;-81
2022/11/15 07:19:20;;;;;;;23.90;11.55;;;;;;;;;;5074077;28;20090;-81
2022/11/15 07:21:46;;;;;;;22.73;10.75;;;9.80;99.90;;;;;;5074927;28;20040;-81
2022/11/15 07:24:15;;;;;;;27.67;12.57;;;9.80;99.90;;;;;;5046108;28;20408;-81
2022/11/15 07:26:41;;;;;;;24.75;12.50;;;10.50;99.90;;;;;;5057436;28;20574;-81
2022/11/15 07:29:06;;;;;;;27.42;11.23;;;9.80;99.90;;;;;;5074831;28;20123;-80
2022/11/15 07:31:32;;;;;;;26.45;10.93;;;9.80;99.90;;;;;;5056759;28;20040;-80
2022/11/15 07:33:58;;;;;;;18.95;9.80;;;9.90;99.90;;;;;;5040696;28;20063;-80
2022/11/15 07:36:23;;;;;;;17.73;9.45;;;9.90;99.90;;;;;;5050988;28;20476;-80
2022/11/15 07:38:49;;;;;;;25.08;10.18;;;;;;;;;;5073707;28;20045;-80
2022/11/15 07:41:16;;;;;;;23.05;10.80;;;10.00;99.90;;;;;;5085159;28;20083;-80
2022/11/15 07:43:42;;;;;;;22.15;9.93;;;10.40;99.90;;;;;;5048947;28;20480;-81
2022/11/15 07:46:09;;;;;;;22.60;10.93;;;10.00;99.90;;;;;;5055981;28;20039;-82
2022/11/15 07:48:39;;;;;;;24.60;10.05;;;10.00;99.90;;;;;;5039389;28;20048;-82
2022/11/15 07:51:06;;;;;;;17.73;9.02;;;10.10;99.90;;;;;;5059526;28;20411;-82
2022/11/15 07:53:32;;;;;;;20.15;9.77;;;10.10;99.90;;;;;;5056770;28;20044;-82
2022/11/15 07:55:58;;;;;;;25.08;11.25;;;10.00;99.90;;;;;;5073826;28;20040;-82
2022/11/15 07:58:24;;;;;;;18.98;9.88;;;10.10;99.90;;;;;;5056291;28;20047;-82
2022/11/15 08:00:49;;;;;;;20.80;10.50;;;10.10;99.90;;;;;;5065656;28;20435;-80
2022/11/15 08:03:16;;;;;;;23.13;9.57;;;10.20;99.90;;;;;;5039532;28;20131;-80
2022/11/15 08:05:43;;;;;;;23.92;11.20;;;10.20;99.90;;;;;;5056395;28;20511;-80
2022/11/15 08:08:10;;;;;;;22.73;10.15;;;10.20;99.90;;;;;;5055955;28;20051;-80
2022/11/15 08:10:37;;;;;;;21.55;10.48;;;10.20;99.90;;;;;;5057383;28;20041;-80
2022/11/15 08:13:04;;;;;;;17.80;8.20;;;10.30;99.90;;;;;;5056311;28;20127;-80
2022/11/15 08:15:31;;;;;;;20.25;9.40;;;10.30;99.90;;;;;;5069348;28;20131;-80
2022/11/15 08:18:02;;;;;;;22.27;10.40;;;10.40;99.90;;;;;;5056019;28;20087;-80
2022/11/15 08:20:29;;;;;;;20.42;9.48;;;10.40;99.90;;;;;;5071138;28;20479;-80
2022/11/15 08:23:00;;;;;;;21.80;10.32;;;10.40;99.90;;;;;;5035857;28;20571;-80
2022/11/15 08:25:27;;;;;;;20.70;10.35;;;10.50;99.90;;;;;;5037881;28;20033;-80
2022/11/15 08:27:54;;;;;;;16.95;8.50;;;10.50;99.90;;;;;;5056646;28;20033;-80
2022/11/15 08:30:21;;;;;;;19.63;10.68;;;10.50;99.90;;;;;;5039395;28;20046;-80
2022/11/15 08:32:47;;;;;;;16.17;8.65;;;;;;;;;;5071568;28;20037;-82
2022/11/15 08:35:13;;;;;;;15.35;8.68;;;10.60;99.90;;;;;;5061937;28;20040;-82
2022/11/15 08:37:38;;;;;;;18.25;8.38;;;10.80;99.90;;;;;;5042372;28;20040;-82
2022/11/15 08:40:05;;;;;;;18.63;8.90;;;10.90;99.90;;;;;;5055715;28;20404;-83
2022/11/15 08:42:31;;;;;;;17.95;9.75;;;10.90;99.90;;;;;;5039642;28;20040;-82
2022/11/15 08:44:56;;;;;;;18.30;8.52;;;11.00;99.90;;;;;;5055514;28;20568;-83
2022/11/15 08:47:22;;;;;;;20.05;9.10;;;11.00;99.90;;;;;;5038719;28;20047;-82
2022/11/15 08:49:48;;;;;;;17.92;8.68;;;11.00;99.90;;;;;;5043315;28;20032;-82
2022/11/15 08:52:14;;;;;;;17.83;8.38;;;11.10;99.90;;;;;;5043741;28;20057;-83
2022/11/15 08:54:40;;;;;;;18.45;9.18;;;11.10;99.90;;;;;;5057468;28;20041;-83
2022/11/15 08:57:06;;;;;;;16.23;8.35;;;11.30;99.90;;;;;;5028250;28;20504;-83
2022/11/15 08:59:32;;;;;;;19.13;9.02;;;11.40;99.90;;;;;;5018940;28;20045;-83
2022/11/15 09:01:58;;;;;;;16.40;8.60;;;11.60;99.90;;;;;;5051900;28;20119;-81
2022/11/15 09:04:24;;;;;;;16.27;8.27;;;11.60;99.90;;;;;;5051864;28;20370;-80
2022/11/15 09:06:49;;;;;;;16.98;8.93;;;11.50;99.90;;;;;;5051726;28;20033;-82
2022/11/15 09:09:15;;;;;;;20.85;7.85;;;11.50;99.90;;;;;;5035695;28;20041;-83
2022/11/15 09:11:41;;;;;;;19.58;9.10;;;11.40;99.90;;;;;;5052052;28;20579;-83
2022/11/15 09:14:06;;;;;;;16.02;8.57;;;11.40;99.90;;;;;;5069102;28;20033;-82
2022/11/15 09:16:32;;;;;;;17.50;8.85;;;11.40;99.90;;;;;;5052281;28;20043;-82
2022/11/15 09:18:58;;;;;;;15.23;6.93;;;11.40;99.90;;;;;;5035888;28;20489;-82
2022/11/15 09:21:24;;;;;;;17.25;8.20;;;11.60;99.90;;;;;;5035641;28;20451;-83
2022/11/15 09:23:52;;;;;;;14.40;7.75;;;11.30;99.90;;;;;;5051933;28;20503;-83
2022/11/15 09:26:18;;;;;;;16.85;7.43;;;11.30;99.90;;;;;;5035382;28;20041;-82
2022/11/15 09:28:44;;;;;;;14.88;7.65;;;11.30;99.90;;;;;;5052439;28;20163;-83
2022/11/15 09:31:10;;;;;;;14.13;7.57;;;11.30;99.90;;;;;;5035391;28;20071;-86
2022/11/15 09:33:36;;;;;;;15.60;6.82;;;11.30;99.90;;;;;;5045409;28;20099;-83
2022/11/15 09:36:04;;;;;;;16.77;7.90;;;11.40;99.90;;;;;;5045990;28;20035;-82
2022/11/15 09:38:31;;;;;;;18.27;8.55;;;11.40;99.90;;;;;;5051285;28;20053;-82
2022/11/15 09:41:14;;;;;;;17.65;9.05;;;11.50;99.90;;;;;;5034921;28;20045;-83
2022/11/15 09:44:00;;;;;;;16.38;8.82;;;11.80;99.90;;;;;;5051044;28;20045;-80
2022/11/15 09:46:51;;;;;;;15.48;8.05;;;11.80;99.90;;;;;;5032103;28;20045;-80
2022/11/15 09:49:18;;;;;;;15.20;8.23;;;11.80;99.90;;;;;;5049467;28;20044;-80
2022/11/15 09:51:50;;;;;;;17.25;7.53;;;11.90;99.90;;;;;;5064569;28;20061;-80
2022/11/15 09:54:35;;;;;;;14.15;7.72;;;11.90;99.90;;;;;;5030389;28;20046;-80
2022/11/15 09:57:15;;;;;;;14.30;7.57;;;;;;;;;;5050616;28;20045;-82
2022/11/15 09:59:42;;;;;;;16.67;7.93;;;;;;;;;;5052843;28;20052;-82
2022/11/15 10:02:19;;;;;;;13.95;7.38;;;12.00;99.90;;;;;;5038657;28;20053;-82
2022/11/15 10:04:48;;;;;;;15.98;8.07;;;12.10;99.90;;;;;;5055807;28;20135;-82
2022/11/15 10:07:25;;;;;;;15.63;7.30;;;12.10;99.90;;;;;;5055362;28;20115;-82
2022/11/15 10:10:01;;;;;;;15.00;7.43;;;12.10;99.90;;;;;;5061268;28;20507;-81
2022/11/15 10:12:28;;;;;;;15.38;8.27;;;12.10;99.90;;;;;;5054932;28;20041;-81
2022/11/15 10:15:04;;;;;;;16.10;7.63;;;12.10;99.90;;;;;;5054625;28;20052;-80
2022/11/15 10:17:38;;;;;;;22.95;7.40;;;12.10;99.90;;;;;;5102814;28;20098;-80
2022/11/15 10:20:10;;;;;;;14.90;6.28;;;12.10;99.90;;;;;;5055541;28;20080;-80
2022/11/15 10:22:52;;;;;;;13.15;6.95;;;12.10;99.90;;;;;;5072458;28;20047;-80
2022/11/15 10:25:29;;;;;;;14.15;6.63;;;12.10;99.90;;;;;;5041175;28;20440;-80
2022/11/15 10:28:00;;;;;;;12.40;6.28;;;12.10;99.90;;;;;;5054685;28;20048;-80
2022/11/15 10:30:40;;;;;;;13.65;7.15;;;12.10;99.90;;;;;;5053298;28;20076;-81
2022/11/15 10:33:24;;;;;;;12.40;7.45;;;12.10;99.90;;;;;;5054178;28;20052;-82
2022/11/15 10:36:09;;;;;;;12.43;6.68;;;12.10;99.90;;;;;;5044235;28;20397;-82
2022/11/15 10:38:52;;;;;;;15.20;7.43;;;12.10;99.90;;;;;;5055033;28;20133;-82
2022/11/15 10:41:39;;;;;;;13.32;6.65;;;12.10;99.90;;;;;;5051664;28;20042;-81
2022/11/15 10:44:11;;;;;;;12.77;6.88;;;12.10;99.90;;;;;;5032897;28;20505;-83
2022/11/15 10:46:39;;;;;;;12.32;6.57;;;12.20;99.90;;;;;;5040769;28;20051;-82
2022/11/15 10:49:25;;;;;;;14.43;6.85;;;12.20;99.90;;;;;;5057663;28;20492;-82
2022/11/15 10:51:54;;;;;;;15.93;7.03;;;12.30;99.90;;;;;;5054383;28;20049;-82
2022/11/15 10:54:44;;;;;;;11.98;6.97;;;12.40;99.90;;;;;;5054440;28;20072;-81
2022/11/15 10:57:17;;;;;;;12.10;5.95;;;12.50;99.90;;;;;;5054172;28;20089;-82
2022/11/15 10:59:49;;;;;;;11.45;5.40;;;12.60;99.90;;;;;;5038090;28;20045;-82
2022/11/15 11:02:32;;;;;;;11.23;5.97;;;12.50;99.90;;;;;;5037696;28;20477;-82
2022/11/15 11:04:59;;;;;;;14.70;5.82;;;12.60;99.90;;;;;;5087855;28;20049;-80
2022/11/15 11:07:30;;;;;;;9.57;5.00;;;12.60;99.90;;;;;;5073192;28;20036;-80
2022/11/15 11:09:59;;;;;;;11.68;5.65;;;12.60;99.90;;;;;;5061818;28;20183;-81
2022/11/15 11:12:33;;;;;;;10.63;5.70;;;12.70;99.90;;;;;;5054353;28;20037;-80
2022/11/15 11:15:01;;;;;;;8.65;5.45;;;12.70;99.90;;;;;;5037900;28;20106;-81
2022/11/15 11:17:46;;;;;;;13.93;5.82;;;12.70;99.90;;;;;;5054159;28;20370;-81
2022/11/15 11:20:21;;;;;;;11.73;5.40;;;12.70;99.90;;;;;;5042504;28;20048;-83
2022/11/15 11:23:20;;;;;;;9.30;5.15;;;12.70;99.90;;;;;;5053855;28;20098;-84
2022/11/15 11:26:23;;;;;;;11.25;5.50;;;12.70;99.90;;;;;;5088027;28;20071;-83
2022/11/15 11:29:16;;;;;;;9.00;4.80;;;12.80;99.90;;;;;;5042838;28;20091;-83
2022/11/15 11:31:54;;;;;;;10.18;4.63;;;12.70;99.90;;;;;;5030800;28;20040;-83
2022/11/15 11:34:48;;;;;;;7.88;4.50;;;12.70;99.90;;;;;;5044590;28;20034;-84
2022/11/15 11:37:32;;;;;;;8.82;4.38;;;12.70;99.90;;;;;;5036953;28;20045;-80
2022/11/15 11:39:58;;;;;;;8.05;3.65;;;12.90;99.90;;;;;;5037396;28;20041;-80
2022/11/15 11:42:41;;;;;;;8.13;4.43;;;12.60;99.90;;;;;;5053676;28;20056;-80
2022/11/15 11:45:20;;;;;;;7.10;4.28;;;12.60;99.90;;;;;;5037471;28;20393;-80
2022/11/15 11:48:04;;;;;;;8.27;3.67;;;12.50;99.90;;;;;;5036575;28;20787;-80
2022/11/15 11:50:31;;;;;;;7.20;3.55;;;12.50;99.90;;;;;;5064434;28;20366;-81
2022/11/15 11:53:03;;;;;;;7.82;3.45;;;12.50;99.90;;;;;;5073502;28;20080;-82
2022/11/15 11:56:01;;;;;;;5.05;3.10;;;12.50;99.90;;;;;;5107352;28;20038;-82
2022/11/15 11:58:43;;;;;;;7.30;3.47;;;12.60;99.90;;;;;;5065125;28;20048;-83
2022/11/15 12:01:21;;;;;;;7.35;3.88;;;12.70;99.90;;;;;;5048596;28;20041;-82
2022/11/15 12:04:01;;;;;;;6.75;2.90;;;12.70;99.90;;;;;;5055805;22;20045;-80
2022/11/15 12:06:55;;;;;;;7.15;3.28;;;12.70;99.90;;;;;;5057647;28;20048;-80
2022/11/15 12:09:41;;;;;;;6.22;3.10;;;12.70;99.90;;;;;;5047455;28;20048;-80
2022/11/15 12:12:23;;;;;;;8.63;2.97;;;12.70;99.90;;;;;;5051915;28;20043;-80
2022/11/15 12:14:54;;;;;;;7.28;2.70;;;12.90;99.90;;;;;;5056732;28;20036;-80
2022/11/15 12:17:23;;;;;;;6.53;3.10;;;12.90;99.90;;;;;;5072072;28;20036;-80
2022/11/15 12:19:49;;;;;;;7.55;3.22;;;13.00;99.90;;;;;;5055849;28;20043;-80
2022/11/15 12:22:23;;;;;;;6.07;3.10;;;13.10;99.90;;;;;;5075715;28;20040;-80
2022/11/15 12:25:00;;;;;;;4.88;2.90;;;13.10;99.90;;;;;;5076346;28;20545;-80
2022/11/15 12:27:38;;;;;;;7.25;2.83;;;13.30;99.90;;;;;;5068158;28;20049;-80
2022/11/15 12:30:15;;;;;;;6.93;3.50;;;13.40;99.90;;;;;;5056279;28;20456;-80
2022/11/15 12:32:58;;;;;;;8.40;3.10;;;13.50;99.90;;;;;;5036686;28;20111;-80
2022/11/15 12:35:38;;;;;;;6.95;3.63;;;13.50;99.90;;;;;;5036726;28;20443;-80
2022/11/15 12:38:04;;;;;;;4.97;3.22;;;13.40;99.90;;;;;;5036138;28;20033;-80
2022/11/15 12:40:36;;;;;;;6.38;2.97;;;13.40;99.90;;;;;;5052791;28;20492;-80
2022/11/15 12:43:14;;;;;;;6.15;2.83;;;13.50;99.90;;;;;;5074020;28;20566;-80
2022/11/15 12:45:45;;;;;;;5.47;2.60;;;13.50;99.90;;;;;;5089538;28;20046;-80
2022/11/15 12:48:17;;;;;;;6.00;2.40;;;13.50;99.90;;;;;;5072671;28;20078;-81
2022/11/15 12:50:54;;;;;;;5.63;2.80;;;13.60;99.90;;;;;;5072707;28;20041;-81
2022/11/15 12:53:26;;;;;;;6.18;1.83;;;13.80;99.90;;;;;;5068326;28;20071;-80
2022/11/15 12:56:04;;;;;;;4.00;1.73;;;13.90;99.90;;;;;;5106603;28;20036;-80
2022/11/15 12:58:56;;;;;;;4.28;2.05;;;13.90;99.90;;;;;;5055860;28;20491;-80
2022/11/15 13:01:34;;;;;;;2.65;1.90;;;13.90;99.90;;;;;;5056790;28;20036;-81
2022/11/15 13:04:19;;;;;;;4.13;2.15;;;14.00;99.90;;;;;;5045275;28;20060;-80
2022/11/15 13:07:03;;;;;;;4.78;2.03;;;14.00;99.90;;;;;;5071506;28;20149;-80
2022/11/15 13:09:35;;;;;;;3.75;2.03;;;14.00;99.90;;;;;;5055696;28;20036;-80
2022/11/15 13:12:20;;;;;;;4.07;2.10;;;13.90;99.90;;;;;;5058789;28;20037;-80
2022/11/15 13:14:55;;;;;;;4.18;2.28;;;13.80;99.90;;;;;;5061984;28;20037;-80
2022/11/15 13:17:37;;;;;;;2.25;1.60;;;13.70;99.90;;;;;;5063914;28;20037;-78
2022/11/15 13:20:06;;;;;;;4.80;2.08;;;13.50;99.90;;;;;;5069312;28;20389;-79
2022/11/15 13:22:51;;;;;;;2.90;2.00;;;13.40;99.90;;;;;;5066006;28;20072;-79
2022/11/15 13:25:34;;;;;;;3.85;2.17;;;13.20;99.90;;;;;;5035990;28;20045;-79